sensor_id;sensor_type;location;lat;lon;timestamp;P1;durP1;ratioP1;P2;durP2;ratioP2
5981;SDS011;3018;48.730;9.336;2022-12-07T00:00:13;7.80;;;7.07;;
5981;SDS011;3018;48.730;9.336;2022-12-07T00:02:40;7.53;;;6.72;;
5981;SDS011;3018;48.730;9.336;2022-12-07T00:05:07;7.50;;;6.80;;
5981;SDS011;3018;48.730;9.336;2022-12-07T00:07:33;6.90;;;6.20;;
5981;SDS011;3018;48.730;9.336;2022-12-07T00:10:00;7.93;;;7.18;;
5981;SDS011;3018;48.730;9.336;2022-12-07T00:12:26;9.52;;;6.63;;
5981;SDS011;3018;48.730;9.336;2022-12-07T00:14:54;7.72;;;6.90;;
5981;SDS011;3018;48.730;9.336;2022-12-07T00:17:20;6.70;;;6.15;;
5981;SDS011;3018;48.730;9.336;2022-12-07T00:19:46;7.47;;;6.78;;
5981;SDS011;3018;48.730;9.336;2022-12-07T00:22:13;7.72;;;6.78;;
5981;SDS011;3018;48.730;9.336;2022-12-07T00:24:39;7.97;;;6.75;;
5981;SDS011;3018;48.730;9.336;2022-12-07T00:27:05;8.10;;;6.65;;
5981;SDS011;3018;48.730;9.336;2022-12-07T00:29:32;8.85;;;6.05;;
5981;SDS011;3018;48.730;9.336;2022-12-07T00:32:02;6.28;;;5.78;;
5981;SDS011;3018;48.730;9.336;2022-12-07T00:34:29;7.60;;;6.70;;
5981;SDS011;3018;48.730;9.336;2022-12-07T00:36:55;7.35;;;6.55;;
5981;SDS011;3018;48.730;9.336;2022-12-07T00:39:22;7.70;;;6.47;;
5981;SDS011;3018;48.730;9.336;2022-12-07T00:41:48;7.10;;;6.40;;
5981;SDS011;3018;48.730;9.336;2022-12-07T00:44:15;7.13;;;6.45;;
5981;SDS011;3018;48.730;9.336;2022-12-07T00:46:41;6.70;;;6.10;;
5981;SDS011;3018;48.730;9.336;2022-12-07T00:49:09;7.80;;;7.05;;
5981;SDS011;3018;48.730;9.336;2022-12-07T00:51:35;8.23;;;7.45;;
5981;SDS011;3018;48.730;9.336;2022-12-07T00:54:01;9.98;;;7.80;;
5981;SDS011;3018;48.730;9.336;2022-12-07T00:56:28;9.55;;;7.53;;
5981;SDS011;3018;48.730;9.336;2022-12-07T00:58:55;8.57;;;7.78;;
5981;SDS011;3018;48.730;9.336;2022-12-07T01:01:22;8.35;;;7.55;;
5981;SDS011;3018;48.730;9.336;2022-12-07T01:03:49;7.60;;;6.95;;
5981;SDS011;3018;48.730;9.336;2022-12-07T01:06:17;7.93;;;7.10;;
5981;SDS011;3018;48.730;9.336;2022-12-07T01:08:43;10.38;;;7.90;;
5981;SDS011;3018;48.730;9.336;2022-12-07T01:11:11;7.97;;;7.18;;
5981;SDS011;3018;48.730;9.336;2022-12-07T01:13:38;8.48;;;7.68;;
5981;SDS011;3018;48.730;9.336;2022-12-07T01:16:05;8.15;;;7.35;;
5981;SDS011;3018;48.730;9.336;2022-12-07T01:18:33;7.60;;;7.00;;
5981;SDS011;3018;48.730;9.336;2022-12-07T01:21:00;7.35;;;6.60;;
5981;SDS011;3018;48.730;9.336;2022-12-07T01:23:28;9.85;;;7.35;;
5981;SDS011;3018;48.730;9.336;2022-12-07T01:25:55;8.32;;;7.63;;
5981;SDS011;3018;48.730;9.336;2022-12-07T01:28:21;8.25;;;7.10;;
5981;SDS011;3018;48.730;9.336;2022-12-07T01:30:54;8.27;;;7.47;;
5981;SDS011;3018;48.730;9.336;2022-12-07T01:33:20;8.43;;;7.65;;
5981;SDS011;3018;48.730;9.336;2022-12-07T01:35:47;8.57;;;7.35;;
5981;SDS011;3018;48.730;9.336;2022-12-07T01:38:13;7.50;;;6.70;;
5981;SDS011;3018;48.730;9.336;2022-12-07T01:40:41;8.20;;;7.40;;
5981;SDS011;3018;48.730;9.336;2022-12-07T01:43:09;9.85;;;7.05;;
5981;SDS011;3018;48.730;9.336;2022-12-07T01:45:39;8.13;;;7.32;;
5981;SDS011;3018;48.730;9.336;2022-12-07T01:48:06;8.40;;;7.55;;
5981;SDS011;3018;48.730;9.336;2022-12-07T01:50:33;7.50;;;6.80;;
5981;SDS011;3018;48.730;9.336;2022-12-07T01:53:01;9.25;;;8.27;;
5981;SDS011;3018;48.730;9.336;2022-12-07T01:55:28;8.75;;;7.47;;
5981;SDS011;3018;48.730;9.336;2022-12-07T01:57:56;8.82;;;7.22;;
5981;SDS011;3018;48.730;9.336;2022-12-07T02:00:23;8.73;;;7.93;;
5981;SDS011;3018;48.730;9.336;2022-12-07T02:02:51;9.38;;;8.45;;
5981;SDS011;3018;48.730;9.336;2022-12-07T02:05:19;9.32;;;7.95;;
5981;SDS011;3018;48.730;9.336;2022-12-07T02:07:46;9.38;;;8.40;;
5981;SDS011;3018;48.730;9.336;2022-12-07T02:10:13;9.32;;;8.35;;
5981;SDS011;3018;48.730;9.336;2022-12-07T02:12:40;9.23;;;8.30;;
5981;SDS011;3018;48.730;9.336;2022-12-07T02:15:09;9.73;;;8.60;;
5981;SDS011;3018;48.730;9.336;2022-12-07T02:17:37;11.90;;;8.65;;
5981;SDS011;3018;48.730;9.336;2022-12-07T02:20:16;11.55;;;8.80;;
5981;SDS011;3018;48.730;9.336;2022-12-07T02:25:40;9.00;;;8.02;;
5981;SDS011;3018;48.730;9.336;2022-12-07T02:28:09;9.25;;;8.15;;
5981;SDS011;3018;48.730;9.336;2022-12-07T02:30:40;9.73;;;7.97;;
5981;SDS011;3018;48.730;9.336;2022-12-07T02:33:10;9.57;;;8.25;;
5981;SDS011;3018;48.730;9.336;2022-12-07T02:35:39;10.40;;;9.38;;
5981;SDS011;3018;48.730;9.336;2022-12-07T02:38:08;9.90;;;8.82;;
5981;SDS011;3018;48.730;9.336;2022-12-07T02:40:38;9.18;;;8.00;;
5981;SDS011;3018;48.730;9.336;2022-12-07T02:43:07;9.68;;;8.35;;
5981;SDS011;3018;48.730;9.336;2022-12-07T02:45:35;9.80;;;8.63;;
5981;SDS011;3018;48.730;9.336;2022-12-07T02:48:04;9.23;;;8.00;;
5981;SDS011;3018;48.730;9.336;2022-12-07T02:50:32;9.20;;;7.75;;
5981;SDS011;3018;48.730;9.336;2022-12-07T02:52:58;8.98;;;8.07;;
5981;SDS011;3018;48.730;9.336;2022-12-07T02:55:26;10.00;;;8.05;;
5981;SDS011;3018;48.730;9.336;2022-12-07T02:57:57;8.90;;;8.00;;
5981;SDS011;3018;48.730;9.336;2022-12-07T03:00:26;9.25;;;8.18;;
5981;SDS011;3018;48.730;9.336;2022-12-07T03:02:54;11.77;;;8.95;;
5981;SDS011;3018;48.730;9.336;2022-12-07T03:05:31;10.23;;;8.50;;
5981;SDS011;3018;48.730;9.336;2022-12-07T03:08:00;9.18;;;8.27;;
5981;SDS011;3018;48.730;9.336;2022-12-07T03:10:28;11.23;;;9.02;;
5981;SDS011;3018;48.730;9.336;2022-12-07T03:12:59;9.95;;;8.30;;
5981;SDS011;3018;48.730;9.336;2022-12-07T03:15:29;9.07;;;8.18;;
5981;SDS011;3018;48.730;9.336;2022-12-07T03:17:57;10.60;;;7.80;;
5981;SDS011;3018;48.730;9.336;2022-12-07T03:20:25;11.10;;;8.45;;
5981;SDS011;3018;48.730;9.336;2022-12-07T03:22:53;10.43;;;9.05;;
5981;SDS011;3018;48.730;9.336;2022-12-07T03:25:20;9.60;;;8.18;;
5981;SDS011;3018;48.730;9.336;2022-12-07T03:27:48;12.93;;;9.48;;
5981;SDS011;3018;48.730;9.336;2022-12-07T03:30:17;12.38;;;9.15;;
5981;SDS011;3018;48.730;9.336;2022-12-07T03:32:45;9.65;;;8.00;;
5981;SDS011;3018;48.730;9.336;2022-12-07T03:35:14;10.23;;;8.98;;
5981;SDS011;3018;48.730;9.336;2022-12-07T03:37:43;14.98;;;9.18;;
5981;SDS011;3018;48.730;9.336;2022-12-07T03:40:14;11.18;;;8.40;;
5981;SDS011;3018;48.730;9.336;2022-12-07T03:42:42;9.40;;;8.18;;
5981;SDS011;3018;48.730;9.336;2022-12-07T03:45:09;9.13;;;8.18;;
5981;SDS011;3018;48.730;9.336;2022-12-07T03:47:37;9.52;;;8.50;;
5981;SDS011;3018;48.730;9.336;2022-12-07T03:50:06;9.35;;;8.43;;
5981;SDS011;3018;48.730;9.336;2022-12-07T03:52:33;10.43;;;8.60;;
5981;SDS011;3018;48.730;9.336;2022-12-07T03:55:02;9.50;;;8.60;;
5981;SDS011;3018;48.730;9.336;2022-12-07T03:57:32;10.02;;;8.68;;
5981;SDS011;3018;48.730;9.336;2022-12-07T03:59:59;11.32;;;8.65;;
5981;SDS011;3018;48.730;9.336;2022-12-07T04:02:26;11.75;;;9.45;;
5981;SDS011;3018;48.730;9.336;2022-12-07T04:04:53;9.20;;;8.20;;
5981;SDS011;3018;48.730;9.336;2022-12-07T04:07:20;9.60;;;7.85;;
5981;SDS011;3018;48.730;9.336;2022-12-07T04:09:46;12.05;;;8.07;;
5981;SDS011;3018;48.730;9.336;2022-12-07T04:12:12;9.48;;;8.50;;
5981;SDS011;3018;48.730;9.336;2022-12-07T04:14:40;8.98;;;8.07;;
5981;SDS011;3018;48.730;9.336;2022-12-07T04:17:06;9.68;;;7.97;;
5981;SDS011;3018;48.730;9.336;2022-12-07T04:19:33;8.82;;;7.93;;
5981;SDS011;3018;48.730;9.336;2022-12-07T04:22:00;9.98;;;8.40;;
5981;SDS011;3018;48.730;9.336;2022-12-07T04:24:27;10.18;;;8.05;;
5981;SDS011;3018;48.730;9.336;2022-12-07T04:26:53;10.07;;;7.13;;
5981;SDS011;3018;48.730;9.336;2022-12-07T04:29:20;9.13;;;8.00;;
5981;SDS011;3018;48.730;9.336;2022-12-07T04:31:48;9.25;;;7.70;;
5981;SDS011;3018;48.730;9.336;2022-12-07T04:34:15;11.05;;;7.57;;
5981;SDS011;3018;48.730;9.336;2022-12-07T04:36:42;8.77;;;7.63;;
5981;SDS011;3018;48.730;9.336;2022-12-07T04:39:13;13.07;;;7.93;;
5981;SDS011;3018;48.730;9.336;2022-12-07T04:41:40;7.78;;;6.97;;
5981;SDS011;3018;48.730;9.336;2022-12-07T04:44:06;8.35;;;7.50;;
5981;SDS011;3018;48.730;9.336;2022-12-07T04:46:33;9.50;;;8.10;;
5981;SDS011;3018;48.730;9.336;2022-12-07T04:49:00;8.07;;;7.25;;
5981;SDS011;3018;48.730;9.336;2022-12-07T04:51:28;8.35;;;7.55;;
5981;SDS011;3018;48.730;9.336;2022-12-07T04:53:55;10.43;;;8.45;;
5981;SDS011;3018;48.730;9.336;2022-12-07T04:56:21;8.23;;;7.38;;
5981;SDS011;3018;48.730;9.336;2022-12-07T04:58:48;8.50;;;7.68;;
5981;SDS011;3018;48.730;9.336;2022-12-07T05:01:15;9.40;;;8.32;;
5981;SDS011;3018;48.730;9.336;2022-12-07T05:03:42;9.70;;;8.65;;
5981;SDS011;3018;48.730;9.336;2022-12-07T05:06:10;10.90;;;8.65;;
5981;SDS011;3018;48.730;9.336;2022-12-07T05:08:36;10.15;;;8.25;;
5981;SDS011;3018;48.730;9.336;2022-12-07T05:11:03;9.75;;;8.70;;
5981;SDS011;3018;48.730;9.336;2022-12-07T05:13:29;9.48;;;8.35;;
5981;SDS011;3018;48.730;9.336;2022-12-07T05:15:56;9.88;;;8.35;;
5981;SDS011;3018;48.730;9.336;2022-12-07T05:18:22;9.80;;;8.65;;
5981;SDS011;3018;48.730;9.336;2022-12-07T05:20:48;13.35;;;10.00;;
5981;SDS011;3018;48.730;9.336;2022-12-07T05:23:17;14.48;;;9.52;;
5981;SDS011;3018;48.730;9.336;2022-12-07T05:25:44;16.75;;;10.55;;
5981;SDS011;3018;48.730;9.336;2022-12-07T05:28:11;12.43;;;9.80;;
5981;SDS011;3018;48.730;9.336;2022-12-07T05:30:38;15.25;;;10.88;;
5981;SDS011;3018;48.730;9.336;2022-12-07T05:33:05;13.52;;;10.55;;
5981;SDS011;3018;48.730;9.336;2022-12-07T05:35:31;12.50;;;9.55;;
5981;SDS011;3018;48.730;9.336;2022-12-07T05:37:57;13.88;;;10.45;;
5981;SDS011;3018;48.730;9.336;2022-12-07T05:40:25;12.70;;;10.25;;
5981;SDS011;3018;48.730;9.336;2022-12-07T05:42:51;13.80;;;9.82;;
5981;SDS011;3018;48.730;9.336;2022-12-07T05:45:17;10.80;;;8.88;;
5981;SDS011;3018;48.730;9.336;2022-12-07T05:47:44;11.98;;;9.90;;
5981;SDS011;3018;48.730;9.336;2022-12-07T05:50:10;12.27;;;10.07;;
5981;SDS011;3018;48.730;9.336;2022-12-07T05:52:36;13.07;;;9.98;;
5981;SDS011;3018;48.730;9.336;2022-12-07T05:55:03;12.75;;;10.30;;
5981;SDS011;3018;48.730;9.336;2022-12-07T05:57:30;12.80;;;9.75;;
5981;SDS011;3018;48.730;9.336;2022-12-07T05:59:57;13.35;;;10.52;;
5981;SDS011;3018;48.730;9.336;2022-12-07T06:02:22;15.13;;;10.60;;
5981;SDS011;3018;48.730;9.336;2022-12-07T06:04:48;13.60;;;10.25;;
5981;SDS011;3018;48.730;9.336;2022-12-07T06:07:15;13.48;;;10.60;;
5981;SDS011;3018;48.730;9.336;2022-12-07T06:09:42;12.35;;;10.60;;
5981;SDS011;3018;48.730;9.336;2022-12-07T06:12:09;12.40;;;9.52;;
5981;SDS011;3018;48.730;9.336;2022-12-07T06:14:53;12.20;;;10.15;;
5981;SDS011;3018;48.730;9.336;2022-12-07T06:17:20;13.48;;;10.95;;
5981;SDS011;3018;48.730;9.336;2022-12-07T06:19:46;13.50;;;10.75;;
5981;SDS011;3018;48.730;9.336;2022-12-07T06:22:12;12.55;;;9.40;;
5981;SDS011;3018;48.730;9.336;2022-12-07T06:24:39;14.85;;;11.48;;
5981;SDS011;3018;48.730;9.336;2022-12-07T06:27:05;13.20;;;9.98;;
5981;SDS011;3018;48.730;9.336;2022-12-07T06:29:32;14.35;;;10.85;;
5981;SDS011;3018;48.730;9.336;2022-12-07T06:32:00;12.85;;;10.45;;
5981;SDS011;3018;48.730;9.336;2022-12-07T06:34:26;13.27;;;9.77;;
5981;SDS011;3018;48.730;9.336;2022-12-07T06:36:53;13.38;;;10.70;;
5981;SDS011;3018;48.730;9.336;2022-12-07T06:39:20;14.30;;;10.05;;
5981;SDS011;3018;48.730;9.336;2022-12-07T06:41:47;13.73;;;10.57;;
5981;SDS011;3018;48.730;9.336;2022-12-07T06:44:14;13.20;;;10.18;;
5981;SDS011;3018;48.730;9.336;2022-12-07T06:46:40;13.07;;;10.85;;
5981;SDS011;3018;48.730;9.336;2022-12-07T06:49:08;18.60;;;10.52;;
5981;SDS011;3018;48.730;9.336;2022-12-07T06:51:34;13.18;;;10.27;;
5981;SDS011;3018;48.730;9.336;2022-12-07T06:54:01;13.50;;;9.75;;
5981;SDS011;3018;48.730;9.336;2022-12-07T06:56:27;13.30;;;10.95;;
5981;SDS011;3018;48.730;9.336;2022-12-07T06:58:54;10.93;;;9.30;;
5981;SDS011;3018;48.730;9.336;2022-12-07T07:01:20;18.20;;;11.95;;
5981;SDS011;3018;48.730;9.336;2022-12-07T07:03:48;11.45;;;9.63;;
5981;SDS011;3018;48.730;9.336;2022-12-07T07:06:16;13.38;;;10.13;;
5981;SDS011;3018;48.730;9.336;2022-12-07T07:08:42;10.35;;;9.25;;
5981;SDS011;3018;48.730;9.336;2022-12-07T07:11:09;12.23;;;10.18;;
5981;SDS011;3018;48.730;9.336;2022-12-07T07:13:35;11.52;;;9.55;;
5981;SDS011;3018;48.730;9.336;2022-12-07T07:16:02;11.05;;;9.45;;
5981;SDS011;3018;48.730;9.336;2022-12-07T07:18:28;10.77;;;9.63;;
5981;SDS011;3018;48.730;9.336;2022-12-07T07:20:54;13.13;;;9.95;;
5981;SDS011;3018;48.730;9.336;2022-12-07T07:23:22;13.35;;;9.88;;
5981;SDS011;3018;48.730;9.336;2022-12-07T07:25:48;12.35;;;10.13;;
5981;SDS011;3018;48.730;9.336;2022-12-07T07:28:15;10.40;;;9.15;;
5981;SDS011;3018;48.730;9.336;2022-12-07T07:30:41;11.38;;;9.60;;
5981;SDS011;3018;48.730;9.336;2022-12-07T07:33:09;13.15;;;9.23;;
5981;SDS011;3018;48.730;9.336;2022-12-07T07:35:35;11.90;;;9.77;;
5981;SDS011;3018;48.730;9.336;2022-12-07T07:38:02;11.05;;;9.35;;
5981;SDS011;3018;48.730;9.336;2022-12-07T07:40:30;13.73;;;9.45;;
5981;SDS011;3018;48.730;9.336;2022-12-07T07:42:56;11.38;;;10.18;;
5981;SDS011;3018;48.730;9.336;2022-12-07T07:45:24;10.38;;;9.00;;
5981;SDS011;3018;48.730;9.336;2022-12-07T07:47:50;12.70;;;9.35;;
5981;SDS011;3018;48.730;9.336;2022-12-07T07:50:16;10.43;;;8.90;;
5981;SDS011;3018;48.730;9.336;2022-12-07T07:52:43;10.18;;;8.95;;
5981;SDS011;3018;48.730;9.336;2022-12-07T07:55:10;11.43;;;9.02;;
5981;SDS011;3018;48.730;9.336;2022-12-07T07:57:38;11.98;;;8.93;;
5981;SDS011;3018;48.730;9.336;2022-12-07T08:00:06;12.18;;;9.25;;
5981;SDS011;3018;48.730;9.336;2022-12-07T08:02:32;10.98;;;9.50;;
5981;SDS011;3018;48.730;9.336;2022-12-07T08:04:59;12.57;;;9.65;;
5981;SDS011;3018;48.730;9.336;2022-12-07T08:07:26;10.85;;;9.48;;
5981;SDS011;3018;48.730;9.336;2022-12-07T08:09:52;13.90;;;10.63;;
5981;SDS011;3018;48.730;9.336;2022-12-07T08:12:19;11.25;;;10.05;;
5981;SDS011;3018;48.730;9.336;2022-12-07T08:14:46;13.98;;;10.02;;
5981;SDS011;3018;48.730;9.336;2022-12-07T08:17:13;14.65;;;10.35;;
5981;SDS011;3018;48.730;9.336;2022-12-07T08:19:39;16.75;;;10.70;;
5981;SDS011;3018;48.730;9.336;2022-12-07T08:22:05;12.05;;;9.95;;
5981;SDS011;3018;48.730;9.336;2022-12-07T08:24:32;13.20;;;9.63;;
5981;SDS011;3018;48.730;9.336;2022-12-07T08:26:59;11.05;;;9.48;;
5981;SDS011;3018;48.730;9.336;2022-12-07T08:29:25;11.32;;;8.60;;
5981;SDS011;3018;48.730;9.336;2022-12-07T08:31:53;9.93;;;8.90;;
5981;SDS011;3018;48.730;9.336;2022-12-07T08:34:19;13.30;;;8.88;;
5981;SDS011;3018;48.730;9.336;2022-12-07T08:36:45;8.82;;;7.93;;
5981;SDS011;3018;48.730;9.336;2022-12-07T08:39:12;10.52;;;8.63;;
5981;SDS011;3018;48.730;9.336;2022-12-07T08:41:38;9.55;;;8.07;;
5981;SDS011;3018;48.730;9.336;2022-12-07T08:44:04;9.40;;;7.82;;
5981;SDS011;3018;48.730;9.336;2022-12-07T08:46:31;8.82;;;7.68;;
5981;SDS011;3018;48.730;9.336;2022-12-07T08:49:03;9.75;;;8.70;;
5981;SDS011;3018;48.730;9.336;2022-12-07T08:51:30;9.55;;;7.72;;
5981;SDS011;3018;48.730;9.336;2022-12-07T08:53:56;9.48;;;7.45;;
5981;SDS011;3018;48.730;9.336;2022-12-07T08:56:24;8.45;;;7.53;;
5981;SDS011;3018;48.730;9.336;2022-12-07T08:58:50;8.65;;;7.82;;
5981;SDS011;3018;48.730;9.336;2022-12-07T09:01:17;9.35;;;7.85;;
5981;SDS011;3018;48.730;9.336;2022-12-07T09:03:44;9.63;;;8.40;;
5981;SDS011;3018;48.730;9.336;2022-12-07T09:06:11;8.95;;;6.95;;
5981;SDS011;3018;48.730;9.336;2022-12-07T09:08:38;8.27;;;7.43;;
5981;SDS011;3018;48.730;9.336;2022-12-07T09:11:06;12.15;;;7.30;;
5981;SDS011;3018;48.730;9.336;2022-12-07T09:13:32;9.65;;;7.43;;
5981;SDS011;3018;48.730;9.336;2022-12-07T09:15:59;9.82;;;7.72;;
5981;SDS011;3018;48.730;9.336;2022-12-07T09:18:25;8.95;;;7.95;;
5981;SDS011;3018;48.730;9.336;2022-12-07T09:20:52;8.50;;;7.65;;
5981;SDS011;3018;48.730;9.336;2022-12-07T09:23:19;7.40;;;6.70;;
5981;SDS011;3018;48.730;9.336;2022-12-07T09:25:46;8.32;;;7.53;;
5981;SDS011;3018;48.730;9.336;2022-12-07T09:28:12;9.02;;;7.32;;
5981;SDS011;3018;48.730;9.336;2022-12-07T09:30:38;11.57;;;6.88;;
5981;SDS011;3018;48.730;9.336;2022-12-07T09:33:05;8.07;;;6.55;;
5981;SDS011;3018;48.730;9.336;2022-12-07T09:35:31;7.68;;;6.88;;
5981;SDS011;3018;48.730;9.336;2022-12-07T09:37:57;6.78;;;6.07;;
5981;SDS011;3018;48.730;9.336;2022-12-07T09:40:25;7.35;;;6.65;;
5981;SDS011;3018;48.730;9.336;2022-12-07T09:42:52;7.22;;;6.53;;
5981;SDS011;3018;48.730;9.336;2022-12-07T09:45:21;7.22;;;6.30;;
5981;SDS011;3018;48.730;9.336;2022-12-07T09:47:48;7.55;;;5.50;;
5981;SDS011;3018;48.730;9.336;2022-12-07T09:50:15;6.63;;;6.03;;
5981;SDS011;3018;48.730;9.336;2022-12-07T09:52:42;7.35;;;6.65;;
5981;SDS011;3018;48.730;9.336;2022-12-07T09:55:10;7.18;;;6.47;;
5981;SDS011;3018;48.730;9.336;2022-12-07T09:57:39;6.80;;;6.20;;
5981;SDS011;3018;48.730;9.336;2022-12-07T10:00:07;7.72;;;6.93;;
5981;SDS011;3018;48.730;9.336;2022-12-07T10:02:37;6.78;;;6.07;;
5981;SDS011;3018;48.730;9.336;2022-12-07T10:05:04;7.45;;;6.05;;
5981;SDS011;3018;48.730;9.336;2022-12-07T10:07:31;9.02;;;6.25;;
5981;SDS011;3018;48.730;9.336;2022-12-07T10:09:57;8.63;;;6.75;;
5981;SDS011;3018;48.730;9.336;2022-12-07T10:12:23;6.25;;;5.65;;
5981;SDS011;3018;48.730;9.336;2022-12-07T10:14:54;7.18;;;5.95;;
5981;SDS011;3018;48.730;9.336;2022-12-07T10:17:27;6.18;;;5.57;;
5981;SDS011;3018;48.730;9.336;2022-12-07T10:19:57;6.28;;;5.78;;
5981;SDS011;3018;48.730;9.336;2022-12-07T10:22:34;6.88;;;6.13;;
5981;SDS011;3018;48.730;9.336;2022-12-07T10:25:07;6.63;;;5.50;;
5981;SDS011;3018;48.730;9.336;2022-12-07T10:27:33;5.80;;;5.28;;
5981;SDS011;3018;48.730;9.336;2022-12-07T10:30:01;8.07;;;5.30;;
5981;SDS011;3018;48.730;9.336;2022-12-07T10:32:33;7.68;;;6.45;;
5981;SDS011;3018;48.730;9.336;2022-12-07T10:35:18;11.15;;;6.20;;
5981;SDS011;3018;48.730;9.336;2022-12-07T10:37:44;8.43;;;5.85;;
5981;SDS011;3018;48.730;9.336;2022-12-07T10:40:23;6.40;;;5.47;;
5981;SDS011;3018;48.730;9.336;2022-12-07T10:42:59;8.65;;;6.50;;
5981;SDS011;3018;48.730;9.336;2022-12-07T10:45:27;6.45;;;5.85;;
5981;SDS011;3018;48.730;9.336;2022-12-07T10:47:55;8.73;;;6.80;;
5981;SDS011;3018;48.730;9.336;2022-12-07T10:50:30;7.50;;;6.25;;
5981;SDS011;3018;48.730;9.336;2022-12-07T10:53:07;9.48;;;6.95;;
5981;SDS011;3018;48.730;9.336;2022-12-07T10:55:41;6.38;;;5.65;;
5981;SDS011;3018;48.730;9.336;2022-12-07T10:58:16;5.70;;;5.10;;
5981;SDS011;3018;48.730;9.336;2022-12-07T11:00:49;6.88;;;5.72;;
5981;SDS011;3018;48.730;9.336;2022-12-07T11:03:23;9.77;;;5.93;;
5981;SDS011;3018;48.730;9.336;2022-12-07T11:05:53;6.20;;;5.60;;
5981;SDS011;3018;48.730;9.336;2022-12-07T11:08:23;6.93;;;5.63;;
5981;SDS011;3018;48.730;9.336;2022-12-07T11:10:56;6.20;;;5.40;;
5981;SDS011;3018;48.730;9.336;2022-12-07T11:13:28;6.15;;;5.53;;
5981;SDS011;3018;48.730;9.336;2022-12-07T11:18:42;7.63;;;5.88;;
5981;SDS011;3018;48.730;9.336;2022-12-07T11:21:13;6.63;;;5.25;;
5981;SDS011;3018;48.730;9.336;2022-12-07T11:23:45;8.25;;;5.43;;
5981;SDS011;3018;48.730;9.336;2022-12-07T11:26:13;6.03;;;5.45;;
5981;SDS011;3018;48.730;9.336;2022-12-07T11:28:49;8.70;;;6.47;;
5981;SDS011;3018;48.730;9.336;2022-12-07T11:31:24;5.45;;;4.82;;
5981;SDS011;3018;48.730;9.336;2022-12-07T11:33:57;7.82;;;5.72;;
5981;SDS011;3018;48.730;9.336;2022-12-07T11:36:36;7.07;;;6.38;;
5981;SDS011;3018;48.730;9.336;2022-12-07T11:39:04;10.75;;;4.93;;
5981;SDS011;3018;48.730;9.336;2022-12-07T11:41:34;7.60;;;6.28;;
5981;SDS011;3018;48.730;9.336;2022-12-07T11:44:04;6.03;;;5.43;;
5981;SDS011;3018;48.730;9.336;2022-12-07T11:46:36;5.75;;;5.15;;
5981;SDS011;3018;48.730;9.336;2022-12-07T11:49:07;8.82;;;5.82;;
5981;SDS011;3018;48.730;9.336;2022-12-07T11:51:36;8.40;;;5.57;;
5981;SDS011;3018;48.730;9.336;2022-12-07T11:54:05;5.90;;;5.40;;
5981;SDS011;3018;48.730;9.336;2022-12-07T11:56:37;11.18;;;6.55;;
5981;SDS011;3018;48.730;9.336;2022-12-07T11:59:06;6.10;;;5.50;;
5981;SDS011;3018;48.730;9.336;2022-12-07T12:01:38;7.55;;;5.72;;
5981;SDS011;3018;48.730;9.336;2022-12-07T12:04:11;6.90;;;5.90;;
5981;SDS011;3018;48.730;9.336;2022-12-07T12:06:43;7.22;;;5.95;;
5981;SDS011;3018;48.730;9.336;2022-12-07T12:09:11;6.10;;;5.50;;
5981;SDS011;3018;48.730;9.336;2022-12-07T12:11:44;5.28;;;4.88;;
5981;SDS011;3018;48.730;9.336;2022-12-07T12:14:17;6.40;;;5.13;;
5981;SDS011;3018;48.730;9.336;2022-12-07T12:16:51;6.22;;;5.38;;
5981;SDS011;3018;48.730;9.336;2022-12-07T12:19:30;5.43;;;4.93;;
5981;SDS011;3018;48.730;9.336;2022-12-07T12:22:00;5.80;;;5.25;;
5981;SDS011;3018;48.730;9.336;2022-12-07T12:24:30;7.03;;;5.40;;
5981;SDS011;3018;48.730;9.336;2022-12-07T12:27:02;5.95;;;5.45;;
5981;SDS011;3018;48.730;9.336;2022-12-07T12:29:31;6.43;;;5.65;;
5981;SDS011;3018;48.730;9.336;2022-12-07T12:32:04;8.13;;;6.22;;
5981;SDS011;3018;48.730;9.336;2022-12-07T12:34:39;6.80;;;5.40;;
5981;SDS011;3018;48.730;9.336;2022-12-07T12:42:43;8.10;;;5.22;;
5981;SDS011;3018;48.730;9.336;2022-12-07T12:45:20;7.68;;;5.38;;
5981;SDS011;3018;48.730;9.336;2022-12-07T12:47:53;6.90;;;4.80;;
5981;SDS011;3018;48.730;9.336;2022-12-07T12:50:22;4.57;;;4.18;;
5981;SDS011;3018;48.730;9.336;2022-12-07T12:52:50;4.38;;;3.97;;
5981;SDS011;3018;48.730;9.336;2022-12-07T12:55:19;3.88;;;3.55;;
5981;SDS011;3018;48.730;9.336;2022-12-07T12:57:47;4.60;;;4.18;;
5981;SDS011;3018;48.730;9.336;2022-12-07T13:00:18;5.15;;;4.68;;
5981;SDS011;3018;48.730;9.336;2022-12-07T13:02:48;5.35;;;4.57;;
5981;SDS011;3018;48.730;9.336;2022-12-07T13:05:16;5.13;;;4.63;;
5981;SDS011;3018;48.730;9.336;2022-12-07T13:07:51;6.22;;;5.15;;
5981;SDS011;3018;48.730;9.336;2022-12-07T13:10:20;7.47;;;6.10;;
5981;SDS011;3018;48.730;9.336;2022-12-07T13:12:54;7.60;;;6.80;;
5981;SDS011;3018;48.730;9.336;2022-12-07T13:15:31;7.50;;;6.22;;
5981;SDS011;3018;48.730;9.336;2022-12-07T13:17:58;9.35;;;6.05;;
5981;SDS011;3018;48.730;9.336;2022-12-07T13:20:42;5.78;;;5.38;;
5981;SDS011;3018;48.730;9.336;2022-12-07T13:23:10;6.63;;;5.75;;
5981;SDS011;3018;48.730;9.336;2022-12-07T13:25:41;5.60;;;5.20;;
5981;SDS011;3018;48.730;9.336;2022-12-07T13:28:11;5.70;;;5.10;;
5981;SDS011;3018;48.730;9.336;2022-12-07T13:30:40;5.55;;;5.15;;
5981;SDS011;3018;48.730;9.336;2022-12-07T13:33:09;7.03;;;6.15;;
5981;SDS011;3018;48.730;9.336;2022-12-07T13:35:36;6.90;;;5.10;;
5981;SDS011;3018;48.730;9.336;2022-12-07T13:38:04;6.15;;;5.13;;
5981;SDS011;3018;48.730;9.336;2022-12-07T13:40:32;6.25;;;5.75;;
5981;SDS011;3018;48.730;9.336;2022-12-07T13:42:59;5.63;;;5.13;;
5981;SDS011;3018;48.730;9.336;2022-12-07T13:45:27;5.85;;;5.35;;
5981;SDS011;3018;48.730;9.336;2022-12-07T13:48:14;6.25;;;5.75;;
5981;SDS011;3018;48.730;9.336;2022-12-07T13:50:40;5.60;;;5.10;;
5981;SDS011;3018;48.730;9.336;2022-12-07T13:53:10;7.65;;;5.38;;
5981;SDS011;3018;48.730;9.336;2022-12-07T13:55:38;5.57;;;5.05;;
5981;SDS011;3018;48.730;9.336;2022-12-07T13:58:10;8.57;;;6.05;;
5981;SDS011;3018;48.730;9.336;2022-12-07T14:00:36;8.88;;;6.03;;
5981;SDS011;3018;48.730;9.336;2022-12-07T14:03:03;6.35;;;5.75;;
5981;SDS011;3018;48.730;9.336;2022-12-07T14:05:30;8.85;;;5.55;;
5981;SDS011;3018;48.730;9.336;2022-12-07T14:07:58;6.70;;;5.50;;
5981;SDS011;3018;48.730;9.336;2022-12-07T14:10:25;6.75;;;5.70;;
5981;SDS011;3018;48.730;9.336;2022-12-07T14:12:53;5.97;;;5.35;;
5981;SDS011;3018;48.730;9.336;2022-12-07T14:15:20;5.82;;;5.28;;
5981;SDS011;3018;48.730;9.336;2022-12-07T14:17:51;6.50;;;5.78;;
5981;SDS011;3018;48.730;9.336;2022-12-07T14:20:30;7.80;;;5.60;;
5981;SDS011;3018;48.730;9.336;2022-12-07T14:22:57;7.80;;;6.00;;
5981;SDS011;3018;48.730;9.336;2022-12-07T14:25:24;5.97;;;5.47;;
5981;SDS011;3018;48.730;9.336;2022-12-07T14:27:56;6.60;;;5.53;;
5981;SDS011;3018;48.730;9.336;2022-12-07T14:30:24;5.25;;;4.75;;
5981;SDS011;3018;48.730;9.336;2022-12-07T14:32:51;5.75;;;5.18;;
5981;SDS011;3018;48.730;9.336;2022-12-07T14:35:18;4.85;;;4.50;;
5981;SDS011;3018;48.730;9.336;2022-12-07T14:37:45;7.13;;;5.65;;
5981;SDS011;3018;48.730;9.336;2022-12-07T14:40:13;6.10;;;5.35;;
5981;SDS011;3018;48.730;9.336;2022-12-07T14:42:39;7.97;;;6.25;;
5981;SDS011;3018;48.730;9.336;2022-12-07T14:45:10;6.28;;;5.68;;
5981;SDS011;3018;48.730;9.336;2022-12-07T14:47:39;6.35;;;5.80;;
5981;SDS011;3018;48.730;9.336;2022-12-07T14:50:05;6.72;;;6.03;;
5981;SDS011;3018;48.730;9.336;2022-12-07T14:52:32;6.45;;;5.60;;
5981;SDS011;3018;48.730;9.336;2022-12-07T14:54:59;6.30;;;5.47;;
5981;SDS011;3018;48.730;9.336;2022-12-07T14:57:25;8.98;;;5.40;;
5981;SDS011;3018;48.730;9.336;2022-12-07T14:59:51;5.55;;;5.15;;
5981;SDS011;3018;48.730;9.336;2022-12-07T15:02:21;7.43;;;6.13;;
5981;SDS011;3018;48.730;9.336;2022-12-07T15:04:48;6.55;;;5.65;;
5981;SDS011;3018;48.730;9.336;2022-12-07T15:07:16;6.55;;;5.80;;
5981;SDS011;3018;48.730;9.336;2022-12-07T15:09:46;6.05;;;5.45;;
5981;SDS011;3018;48.730;9.336;2022-12-07T15:12:13;6.22;;;5.63;;
5981;SDS011;3018;48.730;9.336;2022-12-07T15:14:39;9.93;;;6.43;;
5981;SDS011;3018;48.730;9.336;2022-12-07T15:17:05;7.10;;;6.32;;
5981;SDS011;3018;48.730;9.336;2022-12-07T15:19:33;6.85;;;5.25;;
5981;SDS011;3018;48.730;9.336;2022-12-07T15:21:59;6.72;;;5.90;;
5981;SDS011;3018;48.730;9.336;2022-12-07T15:24:26;6.70;;;6.00;;
5981;SDS011;3018;48.730;9.336;2022-12-07T15:26:53;11.27;;;6.68;;